Zima, Russia
Current Conditions -  °F | °C
As of 6:30 PM on Friday 19 Dec 2014 (Local Time) from UIBB Reporting Station
Broken Clouds Broken Clouds  
Wind Chill:   Ceiling: 10000
Heat Index:   Visibility: 3mi
Dew Point:   Wind: 4mph
Humidity: 85%   Direction: 230°SW
Pressure: 30.39"   Gusts: NA
Location:  53.93°N, 102.04°E
Report Text: UIBB 191030Z 23002MPS P5000 SCT016CB BKN100 M13/M15 Q1029 NOSIGRMK QFE728/0971 30490630
Loading
Personal Weather Stations






























Interactive Weather Map New forecast layout! Learn more

10-Day Weather Forecast

Advertisements
Track Severe Weather on mobile